sensor_id;sensor_type;location;lat;lon;timestamp;P1;durP1;ratioP1;P2;durP2;ratioP2
8327;SDS011;4201;48.754;8.864;2023-05-28T00:01:17;12.03;;;7.43;;
8327;SDS011;4201;48.754;8.864;2023-05-28T00:03:43;13.73;;;6.87;;
8327;SDS011;4201;48.754;8.864;2023-05-28T00:06:10;17.43;;;7.87;;
8327;SDS011;4201;48.754;8.864;2023-05-28T00:08:37;13.73;;;7.40;;
8327;SDS011;4201;48.754;8.864;2023-05-28T00:11:03;17.20;;;7.33;;
8327;SDS011;4201;48.754;8.864;2023-05-28T00:13:31;10.47;;;6.90;;
8327;SDS011;4201;48.754;8.864;2023-05-28T00:15:57;12.00;;;7.60;;
8327;SDS011;4201;48.754;8.864;2023-05-28T00:18:24;15.33;;;8.17;;
8327;SDS011;4201;48.754;8.864;2023-05-28T00:20:50;11.90;;;7.37;;
8327;SDS011;4201;48.754;8.864;2023-05-28T00:23:16;14.40;;;8.30;;
8327;SDS011;4201;48.754;8.864;2023-05-28T00:25:42;20.83;;;9.03;;
8327;SDS011;4201;48.754;8.864;2023-05-28T00:28:09;12.80;;;7.50;;
8327;SDS011;4201;48.754;8.864;2023-05-28T00:30:37;13.60;;;7.50;;
8327;SDS011;4201;48.754;8.864;2023-05-28T00:33:04;14.60;;;8.70;;
8327;SDS011;4201;48.754;8.864;2023-05-28T00:35:30;13.90;;;6.67;;
8327;SDS011;4201;48.754;8.864;2023-05-28T00:37:56;17.77;;;8.50;;
8327;SDS011;4201;48.754;8.864;2023-05-28T00:40:22;17.57;;;8.10;;
8327;SDS011;4201;48.754;8.864;2023-05-28T00:42:48;14.50;;;8.30;;
8327;SDS011;4201;48.754;8.864;2023-05-28T00:45:16;13.50;;;7.70;;
8327;SDS011;4201;48.754;8.864;2023-05-28T00:47:43;16.43;;;8.30;;
8327;SDS011;4201;48.754;8.864;2023-05-28T00:50:10;20.47;;;8.50;;
8327;SDS011;4201;48.754;8.864;2023-05-28T00:52:38;13.27;;;8.37;;
8327;SDS011;4201;48.754;8.864;2023-05-28T00:55:05;8.30;;;6.67;;
8327;SDS011;4201;48.754;8.864;2023-05-28T00:57:33;13.90;;;8.60;;
8327;SDS011;4201;48.754;8.864;2023-05-28T01:00:01;13.80;;;7.50;;
8327;SDS011;4201;48.754;8.864;2023-05-28T01:02:30;13.93;;;8.23;;
8327;SDS011;4201;48.754;8.864;2023-05-28T01:04:58;18.50;;;8.80;;
8327;SDS011;4201;48.754;8.864;2023-05-28T01:07:24;10.43;;;7.37;;
8327;SDS011;4201;48.754;8.864;2023-05-28T01:09:51;14.07;;;8.13;;
8327;SDS011;4201;48.754;8.864;2023-05-28T01:12:17;14.20;;;8.37;;
8327;SDS011;4201;48.754;8.864;2023-05-28T01:14:44;15.57;;;7.40;;
8327;SDS011;4201;48.754;8.864;2023-05-28T01:17:11;16.50;;;8.83;;
8327;SDS011;4201;48.754;8.864;2023-05-28T01:19:37;17.83;;;7.53;;
8327;SDS011;4201;48.754;8.864;2023-05-28T01:22:05;14.37;;;9.03;;
8327;SDS011;4201;48.754;8.864;2023-05-28T01:24:33;20.57;;;7.80;;
8327;SDS011;4201;48.754;8.864;2023-05-28T01:27:01;11.93;;;7.63;;
8327;SDS011;4201;48.754;8.864;2023-05-28T01:29:27;12.73;;;7.67;;
8327;SDS011;4201;48.754;8.864;2023-05-28T01:31:54;11.60;;;7.70;;
8327;SDS011;4201;48.754;8.864;2023-05-28T01:34:20;11.87;;;7.10;;
8327;SDS011;4201;48.754;8.864;2023-05-28T01:36:48;12.67;;;6.50;;
8327;SDS011;4201;48.754;8.864;2023-05-28T01:39:16;18.37;;;7.90;;
8327;SDS011;4201;48.754;8.864;2023-05-28T01:41:46;12.63;;;7.00;;
8327;SDS011;4201;48.754;8.864;2023-05-28T01:44:12;10.67;;;7.50;;
8327;SDS011;4201;48.754;8.864;2023-05-28T01:46:40;13.97;;;7.23;;
8327;SDS011;4201;48.754;8.864;2023-05-28T01:49:08;18.70;;;7.90;;
8327;SDS011;4201;48.754;8.864;2023-05-28T01:51:35;13.87;;;7.60;;
8327;SDS011;4201;48.754;8.864;2023-05-28T01:54:02;12.60;;;7.00;;
8327;SDS011;4201;48.754;8.864;2023-05-28T01:56:28;11.83;;;7.37;;
8327;SDS011;4201;48.754;8.864;2023-05-28T01:58:56;15.87;;;8.50;;
8327;SDS011;4201;48.754;8.864;2023-05-28T02:01:24;13.97;;;7.73;;
8327;SDS011;4201;48.754;8.864;2023-05-28T02:03:52;13.53;;;8.03;;
8327;SDS011;4201;48.754;8.864;2023-05-28T02:06:19;13.10;;;7.27;;
8327;SDS011;4201;48.754;8.864;2023-05-28T02:08:45;12.93;;;7.13;;
8327;SDS011;4201;48.754;8.864;2023-05-28T02:11:12;10.50;;;7.10;;
8327;SDS011;4201;48.754;8.864;2023-05-28T02:13:38;14.80;;;8.40;;
8327;SDS011;4201;48.754;8.864;2023-05-28T02:16:07;14.60;;;8.03;;
8327;SDS011;4201;48.754;8.864;2023-05-28T02:18:35;12.83;;;7.80;;
8327;SDS011;4201;48.754;8.864;2023-05-28T02:21:02;10.80;;;7.63;;
8327;SDS011;4201;48.754;8.864;2023-05-28T02:23:28;10.50;;;7.47;;
8327;SDS011;4201;48.754;8.864;2023-05-28T02:25:55;13.73;;;8.10;;
8327;SDS011;4201;48.754;8.864;2023-05-28T02:28:21;19.83;;;9.37;;
8327;SDS011;4201;48.754;8.864;2023-05-28T02:30:47;17.60;;;8.37;;
8327;SDS011;4201;48.754;8.864;2023-05-28T02:33:15;16.50;;;8.53;;
8327;SDS011;4201;48.754;8.864;2023-05-28T02:35:41;14.93;;;9.10;;
8327;SDS011;4201;48.754;8.864;2023-05-28T02:38:07;20.63;;;9.40;;
8327;SDS011;4201;48.754;8.864;2023-05-28T02:40:34;10.80;;;8.20;;
8327;SDS011;4201;48.754;8.864;2023-05-28T02:43:00;14.33;;;9.70;;
8327;SDS011;4201;48.754;8.864;2023-05-28T02:45:26;16.10;;;9.83;;
8327;SDS011;4201;48.754;8.864;2023-05-28T02:47:52;14.97;;;9.93;;
8327;SDS011;4201;48.754;8.864;2023-05-28T02:50:20;17.77;;;9.90;;
8327;SDS011;4201;48.754;8.864;2023-05-28T02:52:46;14.60;;;8.63;;
8327;SDS011;4201;48.754;8.864;2023-05-28T02:55:12;15.37;;;9.30;;
8327;SDS011;4201;48.754;8.864;2023-05-28T02:57:39;15.10;;;9.10;;
8327;SDS011;4201;48.754;8.864;2023-05-28T03:00:06;22.50;;;9.70;;
8327;SDS011;4201;48.754;8.864;2023-05-28T03:02:34;13.33;;;8.70;;
8327;SDS011;4201;48.754;8.864;2023-05-28T03:05:00;16.30;;;9.10;;
8327;SDS011;4201;48.754;8.864;2023-05-28T03:07:28;20.53;;;9.10;;
8327;SDS011;4201;48.754;8.864;2023-05-28T03:09:55;17.47;;;9.03;;
8327;SDS011;4201;48.754;8.864;2023-05-28T03:12:22;10.17;;;9.13;;
8327;SDS011;4201;48.754;8.864;2023-05-28T03:14:48;14.57;;;9.50;;
8327;SDS011;4201;48.754;8.864;2023-05-28T03:17:14;13.87;;;8.07;;
8327;SDS011;4201;48.754;8.864;2023-05-28T03:19:41;14.53;;;8.23;;
8327;SDS011;4201;48.754;8.864;2023-05-28T03:22:07;13.70;;;8.53;;
8327;SDS011;4201;48.754;8.864;2023-05-28T03:24:34;14.53;;;9.57;;
8327;SDS011;4201;48.754;8.864;2023-05-28T03:27:01;16.30;;;8.60;;
8327;SDS011;4201;48.754;8.864;2023-05-28T03:29:27;14.07;;;8.37;;
8327;SDS011;4201;48.754;8.864;2023-05-28T03:31:54;19.33;;;9.33;;
8327;SDS011;4201;48.754;8.864;2023-05-28T03:34:20;23.93;;;7.97;;
8327;SDS011;4201;48.754;8.864;2023-05-28T03:36:46;14.33;;;8.50;;
8327;SDS011;4201;48.754;8.864;2023-05-28T03:39:12;16.00;;;8.80;;
8327;SDS011;4201;48.754;8.864;2023-05-28T03:41:40;16.60;;;9.83;;
8327;SDS011;4201;48.754;8.864;2023-05-28T03:44:06;16.10;;;8.73;;
8327;SDS011;4201;48.754;8.864;2023-05-28T03:46:33;14.67;;;8.17;;
8327;SDS011;4201;48.754;8.864;2023-05-28T03:48:59;10.73;;;8.77;;
8327;SDS011;4201;48.754;8.864;2023-05-28T03:51:25;13.40;;;8.63;;
8327;SDS011;4201;48.754;8.864;2023-05-28T03:53:52;15.30;;;9.87;;
8327;SDS011;4201;48.754;8.864;2023-05-28T03:56:18;13.47;;;8.83;;
8327;SDS011;4201;48.754;8.864;2023-05-28T03:58:46;13.63;;;9.10;;
8327;SDS011;4201;48.754;8.864;2023-05-28T04:01:12;17.60;;;9.40;;
8327;SDS011;4201;48.754;8.864;2023-05-28T04:03:38;15.73;;;9.00;;
8327;SDS011;4201;48.754;8.864;2023-05-28T04:06:05;11.90;;;8.20;;
8327;SDS011;4201;48.754;8.864;2023-05-28T04:08:32;16.77;;;8.60;;
8327;SDS011;4201;48.754;8.864;2023-05-28T04:10:58;14.50;;;8.73;;
8327;SDS011;4201;48.754;8.864;2023-05-28T04:13:24;13.00;;;8.10;;
8327;SDS011;4201;48.754;8.864;2023-05-28T04:15:52;14.17;;;8.93;;
8327;SDS011;4201;48.754;8.864;2023-05-28T04:18:18;17.20;;;8.70;;
8327;SDS011;4201;48.754;8.864;2023-05-28T04:20:44;13.20;;;7.97;;
8327;SDS011;4201;48.754;8.864;2023-05-28T04:23:11;12.57;;;8.23;;
8327;SDS011;4201;48.754;8.864;2023-05-28T04:25:37;14.43;;;8.87;;
8327;SDS011;4201;48.754;8.864;2023-05-28T04:28:03;16.90;;;8.17;;
8327;SDS011;4201;48.754;8.864;2023-05-28T04:30:29;18.63;;;7.93;;
8327;SDS011;4201;48.754;8.864;2023-05-28T04:32:57;17.33;;;8.30;;
8327;SDS011;4201;48.754;8.864;2023-05-28T04:35:23;11.83;;;7.87;;
8327;SDS011;4201;48.754;8.864;2023-05-28T04:37:49;13.97;;;8.23;;
8327;SDS011;4201;48.754;8.864;2023-05-28T04:40:17;11.83;;;7.43;;
8327;SDS011;4201;48.754;8.864;2023-05-28T04:42:43;11.60;;;7.43;;
8327;SDS011;4201;48.754;8.864;2023-05-28T04:45:10;14.27;;;7.70;;
8327;SDS011;4201;48.754;8.864;2023-05-28T04:47:36;10.53;;;7.30;;
8327;SDS011;4201;48.754;8.864;2023-05-28T04:50:04;13.47;;;8.07;;
8327;SDS011;4201;48.754;8.864;2023-05-28T04:52:31;10.00;;;7.50;;
8327;SDS011;4201;48.754;8.864;2023-05-28T04:54:58;15.20;;;8.10;;
8327;SDS011;4201;48.754;8.864;2023-05-28T04:57:24;10.90;;;6.70;;
8327;SDS011;4201;48.754;8.864;2023-05-28T04:59:50;10.30;;;6.37;;
8327;SDS011;4201;48.754;8.864;2023-05-28T05:02:17;15.13;;;7.17;;
8327;SDS011;4201;48.754;8.864;2023-05-28T05:04:44;12.73;;;7.70;;
8327;SDS011;4201;48.754;8.864;2023-05-28T05:07:11;16.07;;;7.27;;
8327;SDS011;4201;48.754;8.864;2023-05-28T05:09:38;11.50;;;6.80;;
8327;SDS011;4201;48.754;8.864;2023-05-28T05:12:04;9.33;;;6.93;;
8327;SDS011;4201;48.754;8.864;2023-05-28T05:14:32;13.40;;;7.93;;
8327;SDS011;4201;48.754;8.864;2023-05-28T05:16:58;8.90;;;6.50;;
8327;SDS011;4201;48.754;8.864;2023-05-28T05:19:24;12.73;;;6.90;;
8327;SDS011;4201;48.754;8.864;2023-05-28T05:21:51;12.07;;;6.90;;
8327;SDS011;4201;48.754;8.864;2023-05-28T05:24:18;11.00;;;6.40;;
8327;SDS011;4201;48.754;8.864;2023-05-28T05:26:45;12.47;;;6.37;;
8327;SDS011;4201;48.754;8.864;2023-05-28T05:29:12;10.23;;;7.27;;
8327;SDS011;4201;48.754;8.864;2023-05-28T05:31:38;12.90;;;6.93;;
8327;SDS011;4201;48.754;8.864;2023-05-28T05:34:04;12.60;;;7.70;;
8327;SDS011;4201;48.754;8.864;2023-05-28T05:36:30;10.60;;;7.47;;
8327;SDS011;4201;48.754;8.864;2023-05-28T05:38:57;9.37;;;6.40;;
8327;SDS011;4201;48.754;8.864;2023-05-28T05:41:25;9.47;;;6.53;;
8327;SDS011;4201;48.754;8.864;2023-05-28T05:43:51;15.00;;;7.90;;
8327;SDS011;4201;48.754;8.864;2023-05-28T05:46:17;15.90;;;6.73;;
8327;SDS011;4201;48.754;8.864;2023-05-28T05:48:44;13.77;;;6.97;;
8327;SDS011;4201;48.754;8.864;2023-05-28T05:51:10;13.97;;;7.27;;
8327;SDS011;4201;48.754;8.864;2023-05-28T05:53:42;9.83;;;7.40;;
8327;SDS011;4201;48.754;8.864;2023-05-28T05:56:08;14.00;;;7.77;;
8327;SDS011;4201;48.754;8.864;2023-05-28T05:58:36;9.50;;;7.20;;
8327;SDS011;4201;48.754;8.864;2023-05-28T06:01:03;12.27;;;6.53;;
8327;SDS011;4201;48.754;8.864;2023-05-28T06:03:30;14.93;;;7.00;;
8327;SDS011;4201;48.754;8.864;2023-05-28T06:05:56;12.43;;;7.30;;
8327;SDS011;4201;48.754;8.864;2023-05-28T06:08:23;12.23;;;7.93;;
8327;SDS011;4201;48.754;8.864;2023-05-28T06:10:49;10.30;;;6.40;;
8327;SDS011;4201;48.754;8.864;2023-05-28T06:13:16;11.60;;;7.10;;
8327;SDS011;4201;48.754;8.864;2023-05-28T06:15:44;9.77;;;6.37;;
8327;SDS011;4201;48.754;8.864;2023-05-28T06:18:10;9.17;;;5.77;;
8327;SDS011;4201;48.754;8.864;2023-05-28T06:20:37;10.23;;;7.63;;
8327;SDS011;4201;48.754;8.864;2023-05-28T06:23:04;10.70;;;6.00;;
8327;SDS011;4201;48.754;8.864;2023-05-28T06:25:30;14.70;;;6.73;;
8327;SDS011;4201;48.754;8.864;2023-05-28T06:27:57;8.90;;;5.80;;
8327;SDS011;4201;48.754;8.864;2023-05-28T06:30:23;11.50;;;6.80;;
8327;SDS011;4201;48.754;8.864;2023-05-28T06:32:52;15.20;;;7.50;;
8327;SDS011;4201;48.754;8.864;2023-05-28T06:35:18;12.70;;;6.97;;
8327;SDS011;4201;48.754;8.864;2023-05-28T06:37:45;13.00;;;6.87;;
8327;SDS011;4201;48.754;8.864;2023-05-28T06:40:11;11.50;;;6.13;;
8327;SDS011;4201;48.754;8.864;2023-05-28T06:42:37;13.70;;;5.93;;
8327;SDS011;4201;48.754;8.864;2023-05-28T06:45:04;11.57;;;6.40;;
8327;SDS011;4201;48.754;8.864;2023-05-28T06:47:30;12.07;;;5.87;;
8327;SDS011;4201;48.754;8.864;2023-05-28T06:49:58;12.10;;;5.93;;
8327;SDS011;4201;48.754;8.864;2023-05-28T06:52:24;10.57;;;5.87;;
8327;SDS011;4201;48.754;8.864;2023-05-28T06:54:52;11.37;;;6.40;;
8327;SDS011;4201;48.754;8.864;2023-05-28T06:57:18;13.10;;;5.87;;
8327;SDS011;4201;48.754;8.864;2023-05-28T06:59:44;10.87;;;5.63;;
8327;SDS011;4201;48.754;8.864;2023-05-28T07:02:11;8.23;;;5.47;;
8327;SDS011;4201;48.754;8.864;2023-05-28T07:04:37;9.90;;;5.53;;
8327;SDS011;4201;48.754;8.864;2023-05-28T07:07:05;15.37;;;6.90;;
8327;SDS011;4201;48.754;8.864;2023-05-28T07:09:31;13.73;;;6.67;;
8327;SDS011;4201;48.754;8.864;2023-05-28T07:11:57;14.53;;;6.50;;
8327;SDS011;4201;48.754;8.864;2023-05-28T07:14:23;13.60;;;6.40;;
8327;SDS011;4201;48.754;8.864;2023-05-28T07:16:50;13.20;;;4.97;;
8327;SDS011;4201;48.754;8.864;2023-05-28T07:19:17;9.13;;;5.87;;
8327;SDS011;4201;48.754;8.864;2023-05-28T07:21:44;9.23;;;5.43;;
8327;SDS011;4201;48.754;8.864;2023-05-28T07:24:12;13.07;;;6.90;;
8327;SDS011;4201;48.754;8.864;2023-05-28T07:26:38;10.73;;;5.57;;
8327;SDS011;4201;48.754;8.864;2023-05-28T07:29:05;14.90;;;7.20;;
8327;SDS011;4201;48.754;8.864;2023-05-28T07:31:31;14.20;;;6.30;;
8327;SDS011;4201;48.754;8.864;2023-05-28T07:33:57;8.90;;;5.63;;
8327;SDS011;4201;48.754;8.864;2023-05-28T07:36:24;15.87;;;7.00;;
8327;SDS011;4201;48.754;8.864;2023-05-28T07:38:50;14.60;;;6.30;;
8327;SDS011;4201;48.754;8.864;2023-05-28T07:41:18;14.50;;;6.10;;
8327;SDS011;4201;48.754;8.864;2023-05-28T07:43:44;14.83;;;5.70;;
8327;SDS011;4201;48.754;8.864;2023-05-28T07:46:10;12.60;;;6.37;;
8327;SDS011;4201;48.754;8.864;2023-05-28T07:48:36;12.47;;;5.93;;
8327;SDS011;4201;48.754;8.864;2023-05-28T07:51:03;12.13;;;5.40;;
8327;SDS011;4201;48.754;8.864;2023-05-28T07:53:29;9.57;;;5.73;;
8327;SDS011;4201;48.754;8.864;2023-05-28T07:55:55;11.70;;;5.80;;
8327;SDS011;4201;48.754;8.864;2023-05-28T07:58:23;11.53;;;6.13;;
8327;SDS011;4201;48.754;8.864;2023-05-28T08:00:50;12.23;;;5.93;;
8327;SDS011;4201;48.754;8.864;2023-05-28T08:03:17;10.20;;;5.40;;
8327;SDS011;4201;48.754;8.864;2023-05-28T08:05:43;11.83;;;6.50;;
8327;SDS011;4201;48.754;8.864;2023-05-28T08:08:09;14.50;;;6.00;;
8327;SDS011;4201;48.754;8.864;2023-05-28T08:10:35;13.47;;;6.73;;
8327;SDS011;4201;48.754;8.864;2023-05-28T08:13:02;12.53;;;6.20;;
8327;SDS011;4201;48.754;8.864;2023-05-28T08:15:29;9.87;;;5.47;;
8327;SDS011;4201;48.754;8.864;2023-05-28T08:17:55;10.70;;;5.37;;
8327;SDS011;4201;48.754;8.864;2023-05-28T08:20:22;9.73;;;4.90;;
8327;SDS011;4201;48.754;8.864;2023-05-28T08:22:48;11.43;;;5.70;;
8327;SDS011;4201;48.754;8.864;2023-05-28T08:25:14;10.67;;;4.90;;
8327;SDS011;4201;48.754;8.864;2023-05-28T08:27:41;12.47;;;6.00;;
8327;SDS011;4201;48.754;8.864;2023-05-28T08:30:07;8.90;;;6.27;;
8327;SDS011;4201;48.754;8.864;2023-05-28T08:32:35;11.20;;;6.53;;
8327;SDS011;4201;48.754;8.864;2023-05-28T08:35:01;12.53;;;6.30;;
8327;SDS011;4201;48.754;8.864;2023-05-28T08:37:29;10.13;;;6.10;;
8327;SDS011;4201;48.754;8.864;2023-05-28T08:39:55;9.33;;;4.83;;
8327;SDS011;4201;48.754;8.864;2023-05-28T08:42:21;19.30;;;6.13;;
8327;SDS011;4201;48.754;8.864;2023-05-28T08:44:48;12.90;;;5.60;;
8327;SDS011;4201;48.754;8.864;2023-05-28T08:47:14;9.93;;;5.80;;
8327;SDS011;4201;48.754;8.864;2023-05-28T08:49:47;10.77;;;6.20;;
8327;SDS011;4201;48.754;8.864;2023-05-28T08:52:14;8.83;;;5.50;;
8327;SDS011;4201;48.754;8.864;2023-05-28T08:54:42;12.93;;;7.53;;
8327;SDS011;4201;48.754;8.864;2023-05-28T08:57:09;11.07;;;5.43;;
8327;SDS011;4201;48.754;8.864;2023-05-28T08:59:35;11.23;;;5.87;;
8327;SDS011;4201;48.754;8.864;2023-05-28T09:02:02;12.70;;;6.00;;
8327;SDS011;4201;48.754;8.864;2023-05-28T09:04:28;9.07;;;5.20;;
8327;SDS011;4201;48.754;8.864;2023-05-28T09:06:56;11.17;;;5.77;;
8327;SDS011;4201;48.754;8.864;2023-05-28T09:09:23;14.93;;;6.10;;
8327;SDS011;4201;48.754;8.864;2023-05-28T09:11:49;12.07;;;5.50;;
8327;SDS011;4201;48.754;8.864;2023-05-28T09:14:16;13.07;;;6.73;;
8327;SDS011;4201;48.754;8.864;2023-05-28T09:16:44;13.77;;;7.13;;
8327;SDS011;4201;48.754;8.864;2023-05-28T09:19:10;15.60;;;6.50;;
8327;SDS011;4201;48.754;8.864;2023-05-28T09:21:40;9.10;;;5.63;;
8327;SDS011;4201;48.754;8.864;2023-05-28T09:24:18;10.70;;;5.63;;
8327;SDS011;4201;48.754;8.864;2023-05-28T09:26:44;15.00;;;5.27;;
8327;SDS011;4201;48.754;8.864;2023-05-28T09:29:11;13.33;;;5.70;;
8327;SDS011;4201;48.754;8.864;2023-05-28T09:31:38;9.20;;;5.60;;
8327;SDS011;4201;48.754;8.864;2023-05-28T09:34:04;17.80;;;6.70;;
8327;SDS011;4201;48.754;8.864;2023-05-28T09:36:31;17.10;;;5.87;;
8327;SDS011;4201;48.754;8.864;2023-05-28T09:38:57;12.10;;;6.40;;
8327;SDS011;4201;48.754;8.864;2023-05-28T09:41:26;16.90;;;5.67;;
8327;SDS011;4201;48.754;8.864;2023-05-28T09:43:59;12.50;;;6.13;;
8327;SDS011;4201;48.754;8.864;2023-05-28T09:46:29;12.40;;;6.30;;
8327;SDS011;4201;48.754;8.864;2023-05-28T09:48:55;11.43;;;6.10;;
8327;SDS011;4201;48.754;8.864;2023-05-28T09:51:23;13.17;;;5.40;;
8327;SDS011;4201;48.754;8.864;2023-05-28T09:53:50;12.10;;;6.23;;
8327;SDS011;4201;48.754;8.864;2023-05-28T09:56:19;9.70;;;5.10;;
8327;SDS011;4201;48.754;8.864;2023-05-28T09:58:47;11.43;;;5.30;;
8327;SDS011;4201;48.754;8.864;2023-05-28T10:01:17;13.43;;;6.13;;
8327;SDS011;4201;48.754;8.864;2023-05-28T10:03:44;10.53;;;5.37;;
8327;SDS011;4201;48.754;8.864;2023-05-28T10:06:14;13.83;;;5.93;;
8327;SDS011;4201;48.754;8.864;2023-05-28T10:08:41;8.77;;;5.07;;
8327;SDS011;4201;48.754;8.864;2023-05-28T10:11:09;10.93;;;6.53;;
8327;SDS011;4201;48.754;8.864;2023-05-28T10:13:38;10.83;;;5.77;;
8327;SDS011;4201;48.754;8.864;2023-05-28T10:16:07;8.63;;;5.57;;
8327;SDS011;4201;48.754;8.864;2023-05-28T10:18:33;10.07;;;6.00;;
8327;SDS011;4201;48.754;8.864;2023-05-28T10:21:00;12.50;;;6.33;;
8327;SDS011;4201;48.754;8.864;2023-05-28T10:23:26;14.40;;;5.53;;
8327;SDS011;4201;48.754;8.864;2023-05-28T10:25:53;9.73;;;6.10;;
8327;SDS011;4201;48.754;8.864;2023-05-28T10:28:20;13.13;;;6.37;;
8327;SDS011;4201;48.754;8.864;2023-05-28T10:30:47;10.23;;;6.50;;
8327;SDS011;4201;48.754;8.864;2023-05-28T10:33:26;10.60;;;7.03;;
8327;SDS011;4201;48.754;8.864;2023-05-28T10:35:53;14.40;;;6.33;;
8327;SDS011;4201;48.754;8.864;2023-05-28T10:38:20;12.27;;;4.83;;
8327;SDS011;4201;48.754;8.864;2023-05-28T10:40:46;12.87;;;5.67;;
8327;SDS011;4201;48.754;8.864;2023-05-28T10:45:58;13.37;;;5.97;;
8327;SDS011;4201;48.754;8.864;2023-05-28T10:48:24;10.80;;;5.37;;
8327;SDS011;4201;48.754;8.864;2023-05-28T10:50:58;13.63;;;4.73;;
8327;SDS011;4201;48.754;8.864;2023-05-28T10:53:25;11.00;;;6.03;;
8327;SDS011;4201;48.754;8.864;2023-05-28T10:55:52;10.80;;;5.77;;
8327;SDS011;4201;48.754;8.864;2023-05-28T10:58:22;14.23;;;5.83;;
8327;SDS011;4201;48.754;8.864;2023-05-28T11:00:49;10.57;;;5.23;;
8327;SDS011;4201;48.754;8.864;2023-05-28T11:03:15;10.60;;;6.03;;
8327;SDS011;4201;48.754;8.864;2023-05-28T11:05:41;15.23;;;7.07;;
8327;SDS011;4201;48.754;8.864;2023-05-28T11:08:09;11.70;;;6.30;;
8327;SDS011;4201;48.754;8.864;2023-05-28T11:10:35;12.73;;;5.77;;
8327;SDS011;4201;48.754;8.864;2023-05-28T11:13:01;10.93;;;5.10;;
8327;SDS011;4201;48.754;8.864;2023-05-28T11:15:28;8.97;;;5.50;;
8327;SDS011;4201;48.754;8.864;2023-05-28T11:17:54;14.07;;;5.50;;
8327;SDS011;4201;48.754;8.864;2023-05-28T11:20:21;14.00;;;6.33;;
8327;SDS011;4201;48.754;8.864;2023-05-28T11:22:49;14.70;;;6.13;;
8327;SDS011;4201;48.754;8.864;2023-05-28T11:25:17;14.47;;;6.43;;
8327;SDS011;4201;48.754;8.864;2023-05-28T11:27:46;11.60;;;6.10;;
8327;SDS011;4201;48.754;8.864;2023-05-28T11:30:13;11.67;;;5.47;;
8327;SDS011;4201;48.754;8.864;2023-05-28T11:32:39;10.70;;;5.87;;
8327;SDS011;4201;48.754;8.864;2023-05-28T11:35:08;11.70;;;6.30;;
8327;SDS011;4201;48.754;8.864;2023-05-28T11:37:36;13.50;;;6.33;;
8327;SDS011;4201;48.754;8.864;2023-05-28T11:40:03;12.43;;;5.87;;
8327;SDS011;4201;48.754;8.864;2023-05-28T11:42:32;10.57;;;6.53;;
8327;SDS011;4201;48.754;8.864;2023-05-28T11:44:59;15.20;;;7.53;;
8327;SDS011;4201;48.754;8.864;2023-05-28T11:47:25;14.27;;;5.97;;
8327;SDS011;4201;48.754;8.864;2023-05-28T11:49:52;11.47;;;6.07;;
8327;SDS011;4201;48.754;8.864;2023-05-28T11:52:19;9.43;;;6.40;;
8327;SDS011;4201;48.754;8.864;2023-05-28T11:54:51;13.43;;;5.63;;
8327;SDS011;4201;48.754;8.864;2023-05-28T11:57:19;10.50;;;5.70;;
8327;SDS011;4201;48.754;8.864;2023-05-28T11:59:54;10.93;;;6.23;;
8327;SDS011;4201;48.754;8.864;2023-05-28T12:02:22;15.37;;;6.93;;
8327;SDS011;4201;48.754;8.864;2023-05-28T12:04:58;11.37;;;5.93;;
8327;SDS011;4201;48.754;8.864;2023-05-28T12:07:28;11.07;;;6.10;;
8327;SDS011;4201;48.754;8.864;2023-05-28T12:10:02;12.07;;;5.70;;
8327;SDS011;4201;48.754;8.864;2023-05-28T12:12:29;10.80;;;5.80;;
8327;SDS011;4201;48.754;8.864;2023-05-28T12:14:57;13.63;;;6.10;;
8327;SDS011;4201;48.754;8.864;2023-05-28T12:17:24;11.13;;;5.87;;
8327;SDS011;4201;48.754;8.864;2023-05-28T12:19:50;16.33;;;7.47;;
8327;SDS011;4201;48.754;8.864;2023-05-28T12:22:17;8.73;;;5.00;;
8327;SDS011;4201;48.754;8.864;2023-05-28T12:24:47;9.33;;;5.20;;
8327;SDS011;4201;48.754;8.864;2023-05-28T12:27:14;17.00;;;6.60;;
8327;SDS011;4201;48.754;8.864;2023-05-28T12:29:40;9.10;;;5.77;;
8327;SDS011;4201;48.754;8.864;2023-05-28T12:32:08;10.37;;;6.13;;
8327;SDS011;4201;48.754;8.864;2023-05-28T12:34:34;11.07;;;6.50;;
8327;SDS011;4201;48.754;8.864;2023-05-28T12:37:01;10.90;;;6.00;;
8327;SDS011;4201;48.754;8.864;2023-05-28T12:39:27;8.57;;;5.50;;
8327;SDS011;4201;48.754;8.864;2023-05-28T12:41:53;12.63;;;6.10;;
8327;SDS011;4201;48.754;8.864;2023-05-28T12:44:20;13.23;;;5.63;;
8327;SDS011;4201;48.754;8.864;2023-05-28T12:46:46;12.73;;;6.90;;
8327;SDS011;4201;48.754;8.864;2023-05-28T12:49:13;13.43;;;5.40;;
8327;SDS011;4201;48.754;8.864;2023-05-28T12:51:40;15.23;;;5.30;;
8327;SDS011;4201;48.754;8.864;2023-05-28T12:54:06;9.90;;;5.70;;
8327;SDS011;4201;48.754;8.864;2023-05-28T12:56:32;13.33;;;6.20;;
8327;SDS011;4201;48.754;8.864;2023-05-28T12:58:59;10.03;;;6.03;;
8327;SDS011;4201;48.754;8.864;2023-05-28T13:01:25;25.30;;;6.83;;
8327;SDS011;4201;48.754;8.864;2023-05-28T13:03:51;9.37;;;5.43;;
8327;SDS011;4201;48.754;8.864;2023-05-28T13:06:19;12.07;;;6.90;;
8327;SDS011;4201;48.754;8.864;2023-05-28T13:08:45;8.70;;;5.93;;
8327;SDS011;4201;48.754;8.864;2023-05-28T13:11:11;14.23;;;6.80;;
8327;SDS011;4201;48.754;8.864;2023-05-28T13:13:38;10.80;;;6.57;;
8327;SDS011;4201;48.754;8.864;2023-05-28T13:16:04;12.27;;;6.43;;
8327;SDS011;4201;48.754;8.864;2023-05-28T13:18:30;12.63;;;6.17;;
8327;SDS011;4201;48.754;8.864;2023-05-28T13:20:57;12.03;;;6.00;;
8327;SDS011;4201;48.754;8.864;2023-05-28T13:23:24;9.50;;;6.27;;
8327;SDS011;4201;48.754;8.864;2023-05-28T13:25:50;17.10;;;7.10;;
8327;SDS011;4201;48.754;8.864;2023-05-28T13:28:17;11.23;;;6.87;;
8327;SDS011;4201;48.754;8.864;2023-05-28T13:30:44;11.40;;;6.07;;
8327;SDS011;4201;48.754;8.864;2023-05-28T13:33:11;10.80;;;6.57;;
8327;SDS011;4201;48.754;8.864;2023-05-28T13:35:37;14.17;;;7.07;;
8327;SDS011;4201;48.754;8.864;2023-05-28T13:38:03;12.57;;;6.07;;
8327;SDS011;4201;48.754;8.864;2023-05-28T13:40:32;8.83;;;5.53;;
8327;SDS011;4201;48.754;8.864;2023-05-28T13:42:59;13.70;;;6.53;;
8327;SDS011;4201;48.754;8.864;2023-05-28T13:45:25;10.10;;;6.00;;
8327;SDS011;4201;48.754;8.864;2023-05-28T13:47:51;12.10;;;5.90;;
8327;SDS011;4201;48.754;8.864;2023-05-28T13:50:18;11.60;;;5.97;;
8327;SDS011;4201;48.754;8.864;2023-05-28T13:52:44;9.60;;;5.60;;
8327;SDS011;4201;48.754;8.864;2023-05-28T13:55:10;9.63;;;5.63;;
8327;SDS011;4201;48.754;8.864;2023-05-28T13:57:38;10.13;;;6.70;;
8327;SDS011;4201;48.754;8.864;2023-05-28T14:00:04;12.73;;;7.03;;
8327;SDS011;4201;48.754;8.864;2023-05-28T14:02:32;9.67;;;6.30;;
8327;SDS011;4201;48.754;8.864;2023-05-28T14:04:58;11.93;;;5.80;;
8327;SDS011;4201;48.754;8.864;2023-05-28T14:07:25;11.40;;;5.30;;
8327;SDS011;4201;48.754;8.864;2023-05-28T14:09:51;10.63;;;6.33;;
8327;SDS011;4201;48.754;8.864;2023-05-28T14:12:17;12.80;;;6.50;;
8327;SDS011;4201;48.754;8.864;2023-05-28T14:14:45;15.37;;;6.07;;
8327;SDS011;4201;48.754;8.864;2023-05-28T14:17:11;14.23;;;6.17;;
8327;SDS011;4201;48.754;8.864;2023-05-28T14:19:37;13.17;;;6.23;;
8327;SDS011;4201;48.754;8.864;2023-05-28T14:22:04;11.13;;;5.70;;
8327;SDS011;4201;48.754;8.864;2023-05-28T14:24:30;9.00;;;4.93;;
8327;SDS011;4201;48.754;8.864;2023-05-28T14:26:56;10.97;;;6.07;;
8327;SDS011;4201;48.754;8.864;2023-05-28T14:29:22;12.93;;;5.90;;
8327;SDS011;4201;48.754;8.864;2023-05-28T14:31:50;12.57;;;4.60;;
8327;SDS011;4201;48.754;8.864;2023-05-28T14:34:16;9.80;;;5.43;;
8327;SDS011;4201;48.754;8.864;2023-05-28T14:36:42;9.90;;;6.00;;
8327;SDS011;4201;48.754;8.864;2023-05-28T14:39:08;8.03;;;5.50;;
8327;SDS011;4201;48.754;8.864;2023-05-28T14:41:35;12.83;;;6.43;;
8327;SDS011;4201;48.754;8.864;2023-05-28T14:44:01;11.40;;;5.90;;
8327;SDS011;4201;48.754;8.864;2023-05-28T14:46:27;9.37;;;5.20;;
8327;SDS011;4201;48.754;8.864;2023-05-28T14:48:55;10.77;;;5.80;;
8327;SDS011;4201;48.754;8.864;2023-05-28T14:51:21;10.27;;;6.03;;
8327;SDS011;4201;48.754;8.864;2023-05-28T14:53:47;11.60;;;6.50;;
8327;SDS011;4201;48.754;8.864;2023-05-28T14:56:13;8.90;;;5.63;;
8327;SDS011;4201;48.754;8.864;2023-05-28T14:58:40;14.07;;;5.77;;
8327;SDS011;4201;48.754;8.864;2023-05-28T15:01:06;13.50;;;5.90;;
8327;SDS011;4201;48.754;8.864;2023-05-28T15:03:32;11.47;;;5.83;;